This is the latest recevied weather packets stored in our database for station/object F8COD-13. If no packets are shown the sender has not sent any weather packets the latest 10 day(s).
| Time | Temp. | Humidity | Pressure | Rain* | Wind** | Luminosity | Snow |
|---|---|---|---|---|---|---|---|
| 1777366817 | 13.33° C | 64% | 1017.1 hPa | 0 mm | - | - | - |
| 1777366217 | 12.78° C | 66% | 1017 hPa | 0 mm | - | - | - |
| 1777363217 | 12.78° C | 67% | 1017.1 hPa | 0 mm | - | - | - |
| 1777361417 | 12.22° C | 70% | 1017.1 hPa | 0 mm | - | - | - |
| 1777359017 | 11.67° C | 71% | 1017.1 hPa | 0 mm | - | - | - |
| 1777357817 | 11.67° C | 72% | 1017 hPa | 0 mm | - | - | - |
| 1777345217 | 11.11° C | 72% | 1017.4 hPa | 0 mm | - | - | - |
| 1777344617 | 11.11° C | 71% | 1017.4 hPa | 0 mm | - | - | - |
| 1777340416 | 12.78° C | 65% | 1017.8 hPa | 0 mm | - | - | - |
| 1777339837 | 12.78° C | 65% | 1017.7 hPa | 0 mm | - | - | - |
| 1777339216 | 13.33° C | 64% | 1017.8 hPa | 0 mm | - | - | - |
| 1777337416 | 13.33° C | 63% | 1018 hPa | 0 mm | - | - | - |
| 1777335636 | 13.89° C | 61% | 1018 hPa | 0 mm | - | - | - |
| 1777333216 | 14.44° C | 58% | 1018.2 hPa | 0 mm | - | - | - |
| 1777332636 | 14.44° C | 57% | 1018.1 hPa | 0 mm | - | - | - |
| 1777328418 | 14.44° C | 54% | 1018.6 hPa | 0 mm | - | - | - |
| 1777319416 | 17.78° C | 46% | 1018.6 hPa | 0 mm | - | - | - |
| 1777317616 | 18.33° C | 49% | 1018.4 hPa | 0 mm | - | - | - |
| 1777309216 | 21.11° C | 37% | 1018.4 hPa | 0 mm | - | - | - |
| 1777308616 | 21.11° C | 38% | 1018.5 hPa | 0 mm | - | - | - |
| 1777305616 | 21.67° C | 38% | 1018.8 hPa | 0 mm | - | - | - |
| 1777302018 | 22.78° C | 37% | 1019.1 hPa | 0 mm | - | - | - |
| 1777299018 | 23.33° C | 35% | 1019.6 hPa | 0 mm | - | - | - |
| 1777297818 | 23.33° C | 36% | 1019.7 hPa | 0 mm | - | - | - |
| 1777295417 | 23.33° C | 34% | 1020 hPa | 0 mm | - | - | - |
* Rain latest hour (hover to see other rain measurements)
** Current wind speed in m/s (hover to see current wind gust speed)